createdAt,value
2018-07-19T00:00:13.833Z,3.80
2018-07-19T00:01:17.140Z,4.08
2018-07-19T00:02:20.873Z,3.80
2018-07-19T00:03:24.588Z,4.30
2018-07-19T00:04:28.278Z,3.52
2018-07-19T00:05:31.964Z,4.00
2018-07-19T00:06:35.666Z,4.10
2018-07-19T00:07:39.439Z,4.03
2018-07-19T00:08:43.127Z,4.65
2018-07-19T00:09:46.936Z,3.45
2018-07-19T00:10:50.717Z,3.80
2018-07-19T00:11:54.422Z,4.15
2018-07-19T00:12:58.056Z,3.70
2018-07-19T00:14:01.711Z,4.28
2018-07-19T00:15:05.751Z,3.98
2018-07-19T00:16:09.445Z,3.30
2018-07-19T00:17:13.099Z,4.47
2018-07-19T00:18:16.825Z,4.10
2018-07-19T00:19:20.298Z,4.30
2018-07-19T00:20:23.967Z,3.52
2018-07-19T00:21:27.735Z,4.42
2018-07-19T00:22:31.424Z,3.72
2018-07-19T00:23:35.103Z,4.03
2018-07-19T00:24:38.839Z,3.52
2018-07-19T00:25:42.480Z,3.75
2018-07-19T00:26:46.277Z,3.42
2018-07-19T00:27:49.992Z,4.00
2018-07-19T00:28:53.658Z,3.95
2018-07-19T00:29:57.317Z,3.72
2018-07-19T00:31:00.978Z,3.20
2018-07-19T00:32:04.754Z,4.20
2018-07-19T00:33:08.534Z,3.55
2018-07-19T00:34:12.258Z,3.60
2018-07-19T00:35:15.952Z,3.25
2018-07-19T00:36:19.694Z,3.60
2018-07-19T00:37:23.513Z,2.60
2018-07-19T00:38:26.889Z,3.00
2018-07-19T00:39:30.542Z,2.77
2018-07-19T00:40:34.320Z,3.17
2018-07-19T00:41:38.090Z,3.30
2018-07-19T00:42:41.742Z,2.95
2018-07-19T00:43:45.554Z,3.30
2018-07-19T00:44:49.298Z,3.10
2018-07-19T00:45:53.035Z,3.00
2018-07-19T00:46:56.696Z,3.00
2018-07-19T00:48:00.389Z,3.00
2018-07-19T00:49:04.122Z,2.95
2018-07-19T00:50:07.768Z,3.17
2018-07-19T00:51:11.461Z,3.37
2018-07-19T00:52:15.146Z,4.33
2018-07-19T00:53:18.850Z,3.20
2018-07-19T00:54:22.664Z,3.80
2018-07-19T00:55:26.334Z,4.70
2018-07-19T00:56:30.075Z,3.90
2018-07-19T00:57:33.766Z,3.98
2018-07-19T00:58:37.494Z,3.92
2018-07-19T00:59:41.188Z,3.75
2018-07-19T01:00:45.025Z,3.72
2018-07-19T01:01:48.695Z,5.05
2018-07-19T01:02:52.424Z,4.25
2018-07-19T01:03:56.117Z,4.40
2018-07-19T01:04:59.852Z,4.03
2018-07-19T01:06:03.652Z,3.92
2018-07-19T01:07:07.434Z,5.33
2018-07-19T01:08:11.270Z,4.87
2018-07-19T01:09:14.980Z,3.90
2018-07-19T01:10:18.605Z,4.78
2018-07-19T01:11:22.336Z,3.85
2018-07-19T01:12:26.064Z,4.30
2018-07-19T01:13:29.744Z,4.15
2018-07-19T01:14:33.411Z,3.75
2018-07-19T01:15:37.140Z,3.70
2018-07-19T01:16:40.854Z,4.47
2018-07-19T01:17:44.574Z,3.67
2018-07-19T01:18:48.384Z,3.72
2018-07-19T01:19:52.055Z,3.75
2018-07-19T01:20:55.404Z,3.55
2018-07-19T01:21:59.107Z,3.42
2018-07-19T01:23:02.793Z,3.40
2018-07-19T01:24:06.568Z,3.98
2018-07-19T01:25:10.317Z,3.90
2018-07-19T01:26:13.935Z,3.70
2018-07-19T01:27:17.645Z,3.52
2018-07-19T01:28:21.366Z,4.15
2018-07-19T01:29:25.002Z,3.90
2018-07-19T01:30:28.739Z,3.80
2018-07-19T01:31:32.497Z,4.37
2018-07-19T01:32:36.488Z,5.45
2018-07-19T01:33:40.269Z,4.65
2018-07-19T01:34:43.981Z,4.80
2018-07-19T01:35:47.691Z,3.40
2018-07-19T01:36:51.400Z,4.20
2018-07-19T01:37:55.098Z,4.25
2018-07-19T01:38:58.835Z,4.42
2018-07-19T01:40:02.584Z,4.60
2018-07-19T01:41:16.247Z,4.00
2018-07-19T01:42:26.341Z,3.85
2018-07-19T01:43:30.075Z,4.60
2018-07-19T01:44:33.829Z,4.22
2018-07-19T01:45:44.126Z,3.98
2018-07-19T01:46:47.812Z,3.75
2018-07-19T01:47:51.573Z,4.45
2018-07-19T01:48:55.214Z,3.87
2018-07-19T01:49:58.900Z,4.37
2018-07-19T01:51:02.577Z,5.03
2018-07-19T01:52:06.647Z,3.75
2018-07-19T01:53:10.339Z,4.50
2018-07-19T01:54:14.023Z,4.20
2018-07-19T01:55:17.745Z,4.65
2018-07-19T01:56:21.429Z,4.50
2018-07-19T01:57:25.178Z,4.20
2018-07-19T01:58:28.492Z,4.65
2018-07-19T01:59:32.227Z,4.30
2018-07-19T02:00:36.071Z,3.98
2018-07-19T02:01:39.814Z,4.50
2018-07-19T02:02:43.468Z,4.20
2018-07-19T02:03:47.193Z,4.28
2018-07-19T02:04:50.946Z,3.58
2018-07-19T02:05:54.691Z,4.15
2018-07-19T02:06:58.362Z,4.15
2018-07-19T02:08:02.087Z,3.80
2018-07-19T02:09:06.718Z,3.47
2018-07-19T02:10:10.389Z,3.75
2018-07-19T02:11:14.051Z,3.67
2018-07-19T02:12:17.743Z,4.05
2018-07-19T02:13:21.464Z,3.60
2018-07-19T02:14:25.258Z,4.35
2018-07-19T02:15:28.928Z,4.03
2018-07-19T02:16:32.654Z,4.42
2018-07-19T02:17:36.052Z,4.87
2018-07-19T02:18:39.968Z,4.80
2018-07-19T02:19:43.711Z,4.80
2018-07-19T02:20:47.462Z,4.28
2018-07-19T02:21:51.184Z,5.17
2018-07-19T02:22:54.846Z,4.85
2018-07-19T02:23:58.593Z,5.05
2018-07-19T02:25:02.311Z,5.08
2018-07-19T02:26:05.962Z,5.10
2018-07-19T02:27:09.728Z,4.97
2018-07-19T02:28:13.372Z,5.80
2018-07-19T02:29:17.026Z,5.35
2018-07-19T02:30:20.657Z,4.97
2018-07-19T02:31:24.406Z,5.22
2018-07-19T02:32:28.139Z,4.87
2018-07-19T02:33:31.758Z,5.70
2018-07-19T02:34:35.395Z,5.80
2018-07-19T02:35:39.029Z,4.83
2018-07-19T02:36:42.668Z,5.40
2018-07-19T02:37:46.372Z,5.80
2018-07-19T02:38:50.004Z,4.95
2018-07-19T02:39:53.683Z,5.70
2018-07-19T02:40:57.583Z,5.17
2018-07-19T02:42:00.888Z,5.20
2018-07-19T02:43:04.576Z,5.12
2018-07-19T02:44:10.247Z,5.03
2018-07-19T02:45:13.845Z,5.10
2018-07-19T02:46:17.641Z,5.08
2018-07-19T02:47:20.899Z,5.85
2018-07-19T02:48:24.558Z,5.33
2018-07-19T02:49:28.192Z,5.90
2018-07-19T02:50:31.817Z,4.58
2018-07-19T02:51:35.449Z,4.60
2018-07-19T02:52:39.052Z,4.50
2018-07-19T02:53:42.694Z,5.20
2018-07-19T02:54:46.323Z,5.17
2018-07-19T02:55:49.946Z,4.90
2018-07-19T02:56:53.576Z,4.72
2018-07-19T02:57:57.204Z,5.12
2018-07-19T02:59:00.978Z,4.05
2018-07-19T03:00:05.276Z,4.75
2018-07-19T03:01:08.898Z,5.25
2018-07-19T03:02:12.580Z,4.42
2018-07-19T03:03:16.184Z,4.10
2018-07-19T03:04:19.856Z,5.20
2018-07-19T03:05:23.471Z,4.85
2018-07-19T03:06:27.153Z,5.40
2018-07-19T03:07:30.719Z,5.17
2018-07-19T03:08:34.364Z,5.65
2018-07-19T03:09:37.656Z,5.35
2018-07-19T03:10:41.352Z,5.17
2018-07-19T03:11:44.616Z,4.70
2018-07-19T03:12:48.280Z,4.92
2018-07-19T03:13:51.999Z,4.53
2018-07-19T03:14:55.282Z,5.03
2018-07-19T03:15:58.577Z,5.10
2018-07-19T03:17:02.198Z,4.80
2018-07-19T03:18:05.987Z,4.70
2018-07-19T03:19:09.674Z,4.92
2018-07-19T03:20:13.291Z,4.60
2018-07-19T03:21:16.923Z,4.37
2018-07-19T03:22:20.543Z,5.12
2018-07-19T03:23:24.191Z,3.83
2018-07-19T03:24:27.906Z,4.15
2018-07-19T03:25:31.587Z,4.17
2018-07-19T03:26:35.254Z,3.85
2018-07-19T03:27:38.860Z,3.20
2018-07-19T03:28:42.465Z,3.10
2018-07-19T03:29:46.109Z,3.80
2018-07-19T03:30:49.909Z,3.95
2018-07-19T03:31:53.443Z,3.50
2018-07-19T03:32:57.075Z,3.95
2018-07-19T03:34:00.685Z,3.67
2018-07-19T03:35:04.427Z,3.80
2018-07-19T03:36:08.044Z,4.33
2018-07-19T03:37:11.631Z,3.55
2018-07-19T03:38:15.241Z,3.70
2018-07-19T03:39:18.901Z,3.50
2018-07-19T03:40:22.230Z,3.83
2018-07-19T03:41:25.923Z,4.25
2018-07-19T03:42:29.547Z,4.03
2018-07-19T03:43:33.183Z,4.15
2018-07-19T03:44:36.814Z,3.98
2018-07-19T03:45:40.538Z,4.20
2018-07-19T03:46:43.921Z,3.37
2018-07-19T03:47:47.500Z,3.98
2018-07-19T03:48:51.119Z,3.00
2018-07-19T03:49:54.805Z,3.83
2018-07-19T03:50:58.464Z,3.98
2018-07-19T03:52:02.127Z,3.60
2018-07-19T03:53:05.777Z,3.95
2018-07-19T03:54:09.047Z,4.28
2018-07-19T03:55:12.897Z,4.00
2018-07-19T03:56:16.504Z,3.85
2018-07-19T03:57:20.192Z,3.60
2018-07-19T03:58:23.856Z,3.62
2018-07-19T03:59:27.124Z,4.30
2018-07-19T04:00:30.750Z,4.28
2018-07-19T04:01:34.414Z,3.75
2018-07-19T04:02:38.049Z,3.37
2018-07-19T04:03:41.704Z,3.75
2018-07-19T04:04:45.434Z,3.70
2018-07-19T04:05:49.132Z,4.12
2018-07-19T04:06:52.824Z,4.35
2018-07-19T04:07:56.483Z,4.30
2018-07-19T04:09:00.107Z,5.35
2018-07-19T04:10:03.758Z,4.03
2018-07-19T04:11:07.471Z,4.30
2018-07-19T04:12:11.389Z,5.03
2018-07-19T04:13:15.054Z,4.25
2018-07-19T04:14:18.721Z,4.80
2018-07-19T04:15:22.361Z,4.83
2018-07-19T04:16:25.980Z,5.00
2018-07-19T04:17:29.643Z,6.55
2018-07-19T04:18:33.274Z,4.70
2018-07-19T04:19:37.100Z,4.95
2018-07-19T04:20:40.747Z,5.30
2018-07-19T04:21:44.352Z,4.85
2018-07-19T04:22:48.034Z,4.65
2018-07-19T04:23:51.698Z,5.33
2018-07-19T04:24:55.344Z,4.55
2018-07-19T04:25:59.000Z,3.62
2018-07-19T04:27:02.837Z,3.60
2018-07-19T04:28:06.483Z,3.30
2018-07-19T04:29:10.141Z,3.85
2018-07-19T04:30:13.795Z,4.15
2018-07-19T04:31:24.030Z,4.28
2018-07-19T04:32:30.535Z,4.42
2018-07-19T04:33:34.238Z,3.75
2018-07-19T04:34:37.964Z,4.03
2018-07-19T04:35:41.612Z,3.85
2018-07-19T04:36:45.335Z,4.75
2018-07-19T04:37:49.115Z,5.33
2018-07-19T04:38:52.755Z,4.67
2018-07-19T04:39:56.408Z,5.15
2018-07-19T04:41:00.092Z,4.50
2018-07-19T04:42:03.741Z,4.60
2018-07-19T04:43:07.469Z,4.53
2018-07-19T04:44:10.737Z,5.12
2018-07-19T04:45:14.438Z,4.62
2018-07-19T04:46:18.066Z,4.80
2018-07-19T04:47:21.732Z,4.20
2018-07-19T04:48:25.312Z,3.95
2018-07-19T04:49:30.898Z,4.75
2018-07-19T04:50:34.582Z,4.53
2018-07-19T04:51:38.426Z,4.80
2018-07-19T04:52:42.091Z,4.12
2018-07-19T04:53:45.730Z,4.40
2018-07-19T04:54:52.311Z,4.40
2018-07-19T04:55:55.974Z,3.58
2018-07-19T04:56:59.600Z,4.58
2018-07-19T04:58:03.315Z,4.22
2018-07-19T04:59:07.011Z,4.45
2018-07-19T05:00:10.647Z,3.70
2018-07-19T05:01:14.288Z,4.08
2018-07-19T05:02:17.980Z,3.25
2018-07-19T05:03:21.635Z,3.75
2018-07-19T05:04:25.346Z,3.92
2018-07-19T05:05:28.952Z,3.90
2018-07-19T05:06:32.584Z,4.85
2018-07-19T05:07:36.192Z,3.98
2018-07-19T05:08:39.947Z,4.60
2018-07-19T05:09:43.670Z,4.25
2018-07-19T05:10:47.316Z,4.72
2018-07-19T05:11:51.042Z,4.70
2018-07-19T05:12:54.674Z,3.50
2018-07-19T05:13:58.286Z,3.95
2018-07-19T05:15:02.018Z,3.60
2018-07-19T05:16:05.672Z,4.67
2018-07-19T05:17:09.380Z,4.45
2018-07-19T05:18:12.992Z,4.30
2018-07-19T05:19:16.352Z,4.37
2018-07-19T05:20:20.020Z,4.00
2018-07-19T05:21:23.727Z,3.35
2018-07-19T05:22:27.367Z,4.37
2018-07-19T05:23:31.025Z,4.60
2018-07-19T05:24:34.613Z,3.95
2018-07-19T05:25:38.294Z,4.50
2018-07-19T05:26:41.898Z,4.37
2018-07-19T05:27:45.535Z,4.05
2018-07-19T05:28:48.912Z,3.50
2018-07-19T05:29:52.500Z,5.12
2018-07-19T05:30:56.221Z,4.60
2018-07-19T05:31:59.920Z,3.62
2018-07-19T05:33:03.513Z,4.08
2018-07-19T05:34:07.249Z,4.35
2018-07-19T05:35:10.899Z,3.62
2018-07-19T05:36:14.601Z,3.77
2018-07-19T05:37:18.175Z,4.62
2018-07-19T05:38:21.861Z,3.70
2018-07-19T05:39:25.131Z,4.05
2018-07-19T05:40:28.814Z,4.08
2018-07-19T05:41:32.464Z,3.20
2018-07-19T05:42:36.143Z,4.28
2018-07-19T05:43:39.795Z,3.72
2018-07-19T05:44:43.436Z,3.70
2018-07-19T05:45:47.099Z,4.30
2018-07-19T05:46:50.790Z,3.90
2018-07-19T05:47:54.048Z,3.47
2018-07-19T05:48:57.690Z,3.90
2018-07-19T05:50:01.361Z,3.83
2018-07-19T05:51:05.038Z,3.17
2018-07-19T05:52:08.990Z,3.10
2018-07-19T05:53:12.685Z,3.83
2018-07-19T05:54:16.343Z,4.33
2018-07-19T05:55:20.017Z,3.87
2018-07-19T05:56:23.825Z,3.85
2018-07-19T05:57:27.432Z,3.80
2018-07-19T05:58:31.060Z,4.10
2018-07-19T05:59:34.729Z,3.70
2018-07-19T06:00:38.409Z,4.00
2018-07-19T06:01:42.038Z,3.42
2018-07-19T06:02:45.649Z,4.40
2018-07-19T06:03:49.385Z,3.83
2018-07-19T06:04:52.664Z,3.80
2018-07-19T06:05:56.372Z,3.70
2018-07-19T06:07:00.080Z,3.60
2018-07-19T06:08:03.691Z,2.70
2018-07-19T06:09:08.698Z,3.20
2018-07-19T06:10:12.335Z,3.40
2018-07-19T06:11:16.002Z,3.12
2018-07-19T06:12:19.923Z,3.35
2018-07-19T06:13:23.497Z,3.17
2018-07-19T06:14:27.089Z,3.67
2018-07-19T06:15:30.710Z,3.60
2018-07-19T06:16:34.422Z,3.33
2018-07-19T06:17:38.196Z,3.72
2018-07-19T06:18:42.014Z,3.00
2018-07-19T06:19:45.589Z,3.72
2018-07-19T06:20:49.262Z,3.20
2018-07-19T06:21:52.544Z,2.60
2018-07-19T06:22:56.186Z,2.80
2018-07-19T06:23:59.854Z,2.60
2018-07-19T06:25:03.539Z,2.33
2018-07-19T06:26:06.849Z,2.20
2018-07-19T06:27:10.553Z,2.25
2018-07-19T06:28:14.270Z,1.98
2018-07-19T06:29:17.900Z,1.90
2018-07-19T06:30:21.612Z,2.05
2018-07-19T06:31:25.286Z,2.15
2018-07-19T06:32:28.903Z,1.90
2018-07-19T06:33:32.511Z,2.10
2018-07-19T06:34:36.177Z,2.15
2018-07-19T06:35:39.822Z,2.17
2018-07-19T06:36:43.508Z,2.12
2018-07-19T06:37:47.130Z,2.22
2018-07-19T06:38:50.761Z,2.55
2018-07-19T06:39:54.400Z,2.20
2018-07-19T06:40:58.283Z,2.00
2018-07-19T06:42:02.046Z,2.17
2018-07-19T06:43:05.907Z,2.37
2018-07-19T06:44:09.182Z,2.25
2018-07-19T06:45:12.823Z,2.20
2018-07-19T06:46:16.444Z,2.80
2018-07-19T06:47:20.113Z,2.10
2018-07-19T06:48:23.705Z,2.50
2018-07-19T06:49:27.767Z,2.70
2018-07-19T06:50:31.303Z,3.02
2018-07-19T06:51:34.938Z,2.02
2018-07-19T06:52:38.648Z,2.00
2018-07-19T06:53:42.275Z,2.75
2018-07-19T06:54:45.889Z,2.30
2018-07-19T06:55:49.501Z,2.15
2018-07-19T06:56:53.109Z,2.67
2018-07-19T06:57:56.408Z,2.67
2018-07-19T06:58:59.969Z,2.02
2018-07-19T07:00:03.901Z,2.25
2018-07-19T07:01:07.629Z,2.22
2018-07-19T07:02:11.281Z,2.00
2018-07-19T07:03:14.936Z,2.20
2018-07-19T07:04:18.598Z,2.20
2018-07-19T07:05:22.215Z,2.80
2018-07-19T07:06:25.877Z,2.35
2018-07-19T07:07:29.513Z,2.52
2018-07-19T07:08:33.078Z,2.35
2018-07-19T07:09:36.671Z,2.62
2018-07-19T07:10:40.291Z,2.60
2018-07-19T07:11:43.608Z,2.05
2018-07-19T07:12:47.259Z,2.20
2018-07-19T07:13:50.598Z,2.52
2018-07-19T07:14:54.246Z,2.83
2018-07-19T07:15:57.873Z,2.20
2018-07-19T07:17:01.594Z,2.02
2018-07-19T07:18:05.395Z,2.50
2018-07-19T07:19:09.041Z,2.10
2018-07-19T07:20:12.748Z,2.05
2018-07-19T07:21:16.381Z,2.35
2018-07-19T07:22:20.259Z,2.33
2018-07-19T07:23:23.914Z,2.30
2018-07-19T07:24:27.614Z,2.30
2018-07-19T07:25:40.984Z,2.10
2018-07-19T07:26:44.597Z,2.75
2018-07-19T07:27:48.218Z,2.37
2018-07-19T07:28:51.896Z,2.45
2018-07-19T07:29:55.587Z,2.52
2018-07-19T07:30:59.194Z,2.75
2018-07-19T07:32:02.802Z,2.40
2018-07-19T07:33:13.096Z,1.90
2018-07-19T07:34:19.599Z,2.35
2018-07-19T07:35:23.235Z,2.42
2018-07-19T07:36:26.874Z,2.05
2018-07-19T07:37:30.560Z,2.10
2018-07-19T07:38:34.211Z,2.52
2018-07-19T07:39:37.810Z,2.10
2018-07-19T07:40:41.483Z,2.35
2018-07-19T07:41:45.155Z,2.17
2018-07-19T07:42:48.808Z,1.92
2018-07-19T07:43:52.421Z,2.45
2018-07-19T07:44:56.090Z,2.25
2018-07-19T07:45:59.898Z,1.85
2018-07-19T07:47:03.510Z,1.70
2018-07-19T07:48:07.208Z,1.92
2018-07-19T07:49:10.828Z,1.90
2018-07-19T07:50:14.462Z,1.80
2018-07-19T07:51:18.110Z,2.15
2018-07-19T07:52:21.764Z,2.35
2018-07-19T07:53:25.416Z,2.30
2018-07-19T07:54:29.062Z,1.92
2018-07-19T07:55:32.723Z,1.80
2018-07-19T07:56:36.367Z,2.40
2018-07-19T07:57:40.027Z,1.92
2018-07-19T07:58:43.713Z,2.00
2018-07-19T07:59:47.332Z,1.70
2018-07-19T08:00:51.065Z,2.30
2018-07-19T08:01:54.709Z,1.57
2018-07-19T08:02:58.422Z,1.80
2018-07-19T08:04:02.032Z,2.00
2018-07-19T08:05:05.712Z,1.65
2018-07-19T08:06:09.296Z,1.80
2018-07-19T08:07:12.943Z,2.25
2018-07-19T08:08:16.888Z,1.67
2018-07-19T08:09:20.557Z,2.42
2018-07-19T08:10:24.322Z,2.72
2018-07-19T08:11:27.950Z,2.00
2018-07-19T08:12:31.547Z,1.83
2018-07-19T08:13:35.152Z,1.60
2018-07-19T08:14:38.796Z,2.05
2018-07-19T08:15:42.511Z,1.80
2018-07-19T08:16:46.170Z,1.70
2018-07-19T08:17:49.841Z,2.10
2018-07-19T08:18:53.458Z,1.70
2018-07-19T08:19:56.713Z,1.70
2018-07-19T08:21:00.343Z,2.17
2018-07-19T08:22:04.089Z,1.80
2018-07-19T08:23:07.728Z,2.00
2018-07-19T08:24:11.416Z,2.17
2018-07-19T08:25:15.032Z,2.20
2018-07-19T08:26:18.727Z,1.90
2018-07-19T08:27:22.381Z,1.70
2018-07-19T08:28:26.058Z,1.97
2018-07-19T08:29:29.742Z,2.13
2018-07-19T08:30:33.426Z,2.00
2018-07-19T08:31:37.063Z,1.60
2018-07-19T08:32:40.760Z,2.07
2018-07-19T08:33:44.400Z,1.80
2018-07-19T08:34:48.105Z,1.70
2018-07-19T08:35:51.843Z,1.77
2018-07-19T08:36:55.460Z,2.20
2018-07-19T08:37:59.070Z,1.73
2018-07-19T08:39:02.795Z,2.40
2018-07-19T08:40:06.457Z,2.00
2018-07-19T08:41:10.061Z,1.60
2018-07-19T08:42:13.701Z,2.00
2018-07-19T08:43:17.328Z,2.50
2018-07-19T08:44:21.234Z,2.13
2018-07-19T08:45:24.919Z,2.10
2018-07-19T08:46:28.560Z,2.00
2018-07-19T08:47:32.212Z,2.00
2018-07-19T08:48:35.848Z,1.93
2018-07-19T08:49:39.129Z,1.67
2018-07-19T08:50:42.832Z,1.80
2018-07-19T08:51:46.595Z,1.70
2018-07-19T08:52:50.322Z,2.40
2018-07-19T08:53:53.922Z,3.30
2018-07-19T08:54:57.590Z,2.30
2018-07-19T08:57:03.919Z,2.00
2018-07-19T08:58:07.511Z,2.10
2018-07-19T08:59:11.155Z,2.00
2018-07-19T09:00:14.844Z,1.80
2018-07-19T09:01:18.498Z,2.07
2018-07-19T09:02:22.181Z,2.33
2018-07-19T09:03:25.790Z,2.23
2018-07-19T09:04:29.484Z,2.03
2018-07-19T09:05:33.157Z,1.87
2018-07-19T09:06:36.862Z,1.83
2018-07-19T09:07:40.460Z,1.80
2018-07-19T09:08:44.134Z,2.00
2018-07-19T09:09:47.742Z,1.87
2018-07-19T09:10:51.334Z,1.70
2018-07-19T09:11:54.993Z,2.27
2018-07-19T09:12:58.700Z,2.10
2018-07-19T09:14:02.331Z,1.87
2018-07-19T09:15:05.644Z,2.20
2018-07-19T09:16:09.311Z,2.50
2018-07-19T09:17:12.960Z,2.10
2018-07-19T09:18:16.656Z,2.30
2018-07-19T09:19:20.362Z,2.40
2018-07-19T09:20:24.008Z,1.70
2018-07-19T09:21:27.704Z,2.20
2018-07-19T09:22:31.378Z,2.27
2018-07-19T09:23:35.133Z,1.90
2018-07-19T09:24:38.775Z,2.00
2018-07-19T09:25:42.392Z,2.10
2018-07-19T09:26:46.028Z,1.80
2018-07-19T09:27:49.630Z,1.83
2018-07-19T09:28:53.292Z,2.43
2018-07-19T09:29:56.958Z,1.90
2018-07-19T09:31:00.579Z,2.43
2018-07-19T09:32:04.227Z,2.20
2018-07-19T09:33:07.850Z,2.00
2018-07-19T09:34:11.502Z,2.30
2018-07-19T09:35:15.117Z,2.40
2018-07-19T09:36:18.821Z,2.33
2018-07-19T09:37:22.512Z,2.13
2018-07-19T09:38:26.228Z,2.27
2018-07-19T09:39:29.775Z,2.23
2018-07-19T09:40:33.743Z,2.13
2018-07-19T09:41:37.355Z,2.67
2018-07-19T09:42:41.013Z,1.93
2018-07-19T09:43:44.634Z,2.27
2018-07-19T09:44:48.247Z,1.97
2018-07-19T09:45:51.867Z,2.30
2018-07-19T09:46:55.171Z,2.43
2018-07-19T09:47:58.850Z,2.43
2018-07-19T09:49:02.602Z,2.00
2018-07-19T09:50:06.292Z,2.53
2018-07-19T09:51:09.885Z,2.00
2018-07-19T09:52:13.585Z,2.00
2018-07-19T09:53:17.297Z,2.00
2018-07-19T09:54:32.118Z,1.73
2018-07-19T09:55:35.738Z,2.00
2018-07-19T09:56:39.372Z,2.00
2018-07-19T09:57:43.001Z,1.90
2018-07-19T09:58:46.706Z,2.20
2018-07-19T09:59:50.629Z,2.03
2018-07-19T10:00:59.637Z,1.97
2018-07-19T10:02:03.305Z,2.00
2018-07-19T10:03:06.907Z,2.43
2018-07-19T10:04:10.584Z,2.23
2018-07-19T10:05:14.316Z,2.03
2018-07-19T10:06:17.976Z,2.67
2018-07-19T10:07:22.055Z,2.13
2018-07-19T10:08:25.796Z,2.53
2018-07-19T10:09:29.443Z,2.30
2018-07-19T10:10:33.078Z,2.00
2018-07-19T10:11:36.705Z,2.00
2018-07-19T10:12:40.356Z,2.40
2018-07-19T10:13:44.102Z,2.20
2018-07-19T10:14:48.176Z,2.00
2018-07-19T10:15:51.856Z,2.10
2018-07-19T10:16:55.481Z,3.20
2018-07-19T10:17:59.133Z,2.03
2018-07-19T10:19:02.757Z,1.80
2018-07-19T10:20:06.466Z,2.27
2018-07-19T10:21:09.781Z,2.23
2018-07-19T10:22:13.357Z,2.57
2018-07-19T10:23:17.037Z,2.37
2018-07-19T10:24:20.684Z,2.47
2018-07-19T10:25:24.344Z,2.33
2018-07-19T10:26:27.953Z,2.07
2018-07-19T10:27:31.580Z,1.97
2018-07-19T10:28:35.200Z,2.00
2018-07-19T10:29:38.847Z,1.87
2018-07-19T10:30:42.522Z,2.43
2018-07-19T10:31:46.265Z,1.97
2018-07-19T10:32:49.638Z,2.60
2018-07-19T10:33:53.270Z,2.13
2018-07-19T10:34:56.899Z,2.40
2018-07-19T10:36:00.552Z,2.30
2018-07-19T10:37:03.786Z,2.00
2018-07-19T10:38:07.436Z,2.20
2018-07-19T10:39:11.196Z,2.10
2018-07-19T10:40:14.870Z,2.10
2018-07-19T10:41:18.493Z,2.57
2018-07-19T10:42:22.103Z,2.17
2018-07-19T10:43:26.081Z,2.10
2018-07-19T10:44:29.407Z,2.30
2018-07-19T10:45:33.014Z,2.50
2018-07-19T10:46:36.696Z,2.13
2018-07-19T10:47:40.301Z,2.70
2018-07-19T10:48:43.987Z,2.70
2018-07-19T10:49:47.554Z,2.80
2018-07-19T10:50:51.145Z,2.73
2018-07-19T10:51:54.825Z,2.53
2018-07-19T10:52:58.444Z,2.27
2018-07-19T10:54:02.056Z,2.97
2018-07-19T10:55:05.855Z,3.07
2018-07-19T10:56:09.455Z,2.17
2018-07-19T10:57:13.115Z,2.40
2018-07-19T10:58:16.850Z,2.50
2018-07-19T10:59:20.875Z,2.43
2018-07-19T11:00:24.488Z,2.30
2018-07-19T11:01:28.098Z,2.27
2018-07-19T11:02:31.711Z,2.63
2018-07-19T11:03:35.320Z,1.93
2018-07-19T11:04:38.861Z,2.70
2018-07-19T11:05:42.424Z,2.33
2018-07-19T11:06:46.054Z,2.27
2018-07-19T11:07:49.703Z,2.10
2018-07-19T11:08:52.978Z,2.20
2018-07-19T11:09:56.694Z,2.77
2018-07-19T11:11:00.259Z,2.37
2018-07-19T11:12:03.923Z,2.30
2018-07-19T11:13:07.477Z,2.50
2018-07-19T11:14:11.066Z,2.50
2018-07-19T11:15:14.662Z,2.47
2018-07-19T11:16:18.326Z,3.03
2018-07-19T11:17:21.683Z,2.53
2018-07-19T11:18:25.294Z,2.47
2018-07-19T11:19:28.867Z,2.50
2018-07-19T11:20:32.475Z,2.57
2018-07-19T11:21:36.292Z,2.10
2018-07-19T11:22:40.046Z,2.73
2018-07-19T11:23:43.609Z,2.50
2018-07-19T11:24:47.201Z,2.57
2018-07-19T11:25:50.845Z,2.57
2018-07-19T11:26:54.429Z,2.37
2018-07-19T11:27:58.059Z,2.60
2018-07-19T11:29:01.601Z,2.40
2018-07-19T11:30:05.485Z,2.60
2018-07-19T11:31:09.131Z,2.50
2018-07-19T11:32:12.345Z,2.90
2018-07-19T11:33:16.202Z,2.33
2018-07-19T11:34:19.813Z,2.57
2018-07-19T11:35:23.433Z,2.20
2018-07-19T11:36:27.126Z,3.20
2018-07-19T11:37:30.683Z,2.50
2018-07-19T11:38:34.417Z,2.70
2018-07-19T11:39:37.980Z,2.60
2018-07-19T11:40:41.603Z,3.13
2018-07-19T11:41:45.229Z,2.33
2018-07-19T11:42:48.854Z,2.57
2018-07-19T11:43:55.419Z,2.50
2018-07-19T11:44:59.017Z,2.73
2018-07-19T11:46:02.633Z,2.90
2018-07-19T11:47:06.226Z,2.53
2018-07-19T11:48:09.846Z,2.77
2018-07-19T11:49:13.527Z,2.97
2018-07-19T11:50:17.135Z,2.40
2018-07-19T11:51:20.748Z,2.53
2018-07-19T11:52:24.425Z,2.50
2018-07-19T11:53:28.024Z,2.40
2018-07-19T11:54:31.666Z,3.10
2018-07-19T11:55:35.497Z,2.53
2018-07-19T11:56:38.780Z,2.60
2018-07-19T11:57:42.356Z,2.33
2018-07-19T11:58:45.929Z,2.70
2018-07-19T11:59:49.523Z,2.50
2018-07-19T12:00:53.141Z,2.50
2018-07-19T12:01:56.802Z,2.63
2018-07-19T12:03:00.422Z,2.83
2018-07-19T12:04:04.132Z,2.27
2018-07-19T12:05:07.708Z,2.63
2018-07-19T12:06:11.302Z,2.60
2018-07-19T12:07:14.629Z,2.40
2018-07-19T12:08:18.283Z,2.67
2018-07-19T12:09:22.017Z,2.70
2018-07-19T12:10:25.583Z,2.60
2018-07-19T12:11:29.224Z,2.20
2018-07-19T12:12:32.808Z,2.33
2018-07-19T12:13:36.429Z,2.83
2018-07-19T12:14:39.788Z,2.80
2018-07-19T12:15:43.385Z,2.70
2018-07-19T12:16:47.022Z,2.43
2018-07-19T12:17:50.566Z,2.27
2018-07-19T12:18:54.210Z,2.77
2018-07-19T12:19:57.989Z,2.80
2018-07-19T12:21:01.606Z,2.27
2018-07-19T12:22:05.305Z,2.10
2018-07-19T12:23:08.948Z,2.50
2018-07-19T12:24:12.229Z,2.67
2018-07-19T12:25:15.591Z,2.33
2018-07-19T12:26:19.287Z,2.50
2018-07-19T12:27:22.965Z,2.73
2018-07-19T12:28:26.642Z,2.73
2018-07-19T12:29:30.274Z,2.77
2018-07-19T12:30:33.989Z,2.47
2018-07-19T12:31:37.642Z,2.40
2018-07-19T12:32:44.106Z,2.77
2018-07-19T12:33:47.836Z,2.60
2018-07-19T12:34:51.471Z,2.87
2018-07-19T12:35:55.093Z,2.60
2018-07-19T12:36:58.806Z,2.67
2018-07-19T12:38:02.504Z,3.03
2018-07-19T12:39:08.610Z,2.63
2018-07-19T12:40:12.215Z,2.93
2018-07-19T12:41:15.855Z,2.30
2018-07-19T12:42:19.486Z,2.73
2018-07-19T12:43:23.092Z,2.17
2018-07-19T12:44:26.811Z,2.43
2018-07-19T12:45:30.464Z,2.27
2018-07-19T12:46:34.125Z,2.60
2018-07-19T12:47:37.746Z,2.53
2018-07-19T12:48:41.405Z,2.07
2018-07-19T12:49:45.075Z,2.30
2018-07-19T12:50:48.752Z,2.90
2018-07-19T12:51:52.362Z,2.70
2018-07-19T12:52:56.076Z,2.40
2018-07-19T12:53:59.649Z,2.80
2018-07-19T12:55:03.298Z,2.27
2018-07-19T12:56:07.028Z,2.20
2018-07-19T12:57:11.093Z,2.53
2018-07-19T12:58:15.250Z,2.47
2018-07-19T12:59:18.834Z,2.40
2018-07-19T13:00:22.480Z,2.70
2018-07-19T13:01:26.175Z,2.50
2018-07-19T13:02:29.804Z,2.60
2018-07-19T13:03:33.046Z,2.40
2018-07-19T13:04:36.686Z,2.57
2018-07-19T13:05:40.283Z,2.50
2018-07-19T13:06:43.968Z,2.63
2018-07-19T13:07:47.554Z,2.00
2018-07-19T13:08:51.203Z,2.90
2018-07-19T13:09:54.830Z,2.53
2018-07-19T13:10:58.114Z,2.27
2018-07-19T13:12:01.872Z,2.50
2018-07-19T13:13:05.465Z,2.67
2018-07-19T13:14:09.107Z,2.23
2018-07-19T13:15:12.440Z,2.33
2018-07-19T13:16:16.015Z,2.50
2018-07-19T13:17:19.649Z,2.80
2018-07-19T13:18:23.316Z,2.47
2018-07-19T13:19:26.911Z,2.47
2018-07-19T13:20:30.582Z,2.40
2018-07-19T13:21:34.205Z,2.40
2018-07-19T13:22:37.923Z,2.70
2018-07-19T13:23:41.614Z,2.37
2018-07-19T13:24:45.272Z,2.53
2018-07-19T13:25:48.916Z,2.80
2018-07-19T13:26:52.575Z,2.30
2018-07-19T13:27:56.184Z,2.30
2018-07-19T13:28:59.816Z,2.93
2018-07-19T13:30:03.476Z,2.43
2018-07-19T13:31:07.434Z,2.40
2018-07-19T13:32:11.089Z,2.40
2018-07-19T13:33:14.677Z,2.40
2018-07-19T13:34:18.320Z,2.37
2018-07-19T13:35:22.005Z,2.57
2018-07-19T13:36:25.719Z,2.13
2018-07-19T13:37:29.344Z,2.17
2018-07-19T13:38:32.923Z,2.40
2018-07-19T13:39:36.529Z,2.60
2018-07-19T13:40:40.152Z,2.50
2018-07-19T13:41:43.794Z,2.23
2018-07-19T13:42:47.423Z,2.70
2018-07-19T13:43:51.043Z,2.07
2018-07-19T13:44:54.686Z,2.60
2018-07-19T13:45:58.297Z,2.40
2018-07-19T13:47:01.914Z,2.43
2018-07-19T13:48:05.656Z,2.53
2018-07-19T13:49:09.311Z,2.53
2018-07-19T13:50:12.624Z,2.47
2018-07-19T13:51:16.229Z,2.40
2018-07-19T13:52:29.705Z,2.53
2018-07-19T13:53:44.363Z,2.40
2018-07-19T13:54:49.129Z,2.40
2018-07-19T13:55:52.785Z,2.53
2018-07-19T13:56:56.050Z,2.57
2018-07-19T13:57:59.722Z,2.53
2018-07-19T13:59:03.377Z,2.23
2018-07-19T14:00:06.988Z,2.27
2018-07-19T14:01:10.626Z,2.60
2018-07-19T14:02:14.615Z,2.30
2018-07-19T14:03:18.219Z,2.90
2018-07-19T14:04:21.863Z,3.03
2018-07-19T14:05:25.479Z,2.73
2018-07-19T14:06:29.137Z,2.43
2018-07-19T14:07:35.586Z,2.77
2018-07-19T14:08:39.205Z,2.50
2018-07-19T14:09:42.876Z,2.87